• Join FlightAware (Why Join?)
  • Login
  • US Flag 
05:45AM EDT


 

Airport Tracker/Info


-or-


 

Live Flight TrackerFlight Track Log ✈ N328AJ ✈ 09-Jun-2014 ✈ KEYW - KCMH

Flight Track Log - Related Links

Times and Time Zones

All times are in EDT time to prevent confusion due to time zone crossing. See the N328AJ flight status page for this flight to view local times or setup timezone preferences in your user account.

Time Position Orientation Groundspeed Altitude Reporting Facility
EDT Latitude Longitude Course Direction KTS MPH feet Rate Location/Type
04:21PM 24.4636 -81.7356 34° Northeast 192 221 4,000  Level Miami Center
04:22PM 24.4700 -81.8003 276° West 217 250 6,100 1,980 Climbing Miami Center
04:23PM 24.5236 -81.7806 19° North 211 243 8,100 1,800 Climbing Miami Center
04:24PM 24.5808 -81.7728 North 210 242 9,900 1,500 Climbing Miami Center
04:25PM 24.9413 -81.4524 34° Northeast  Level FlightAware Approximate
04:25PM 24.6478 -81.7753 358° North 229 264 11,200  Level Miami Center
04:26PM 25.0078 -81.4025 34° Northeast  Level FlightAware Approximate
04:26PM 24.7167 -81.7633 North 249 287 12,400  Level Miami Center
04:27PM 24.7717 -81.7133 40° Northeast 252 290 13,600 1,140 Climbing Miami Center
04:28PM 24.8228 -81.6592 44° Northeast 252 290 14,800 1,140 Climbing Miami Center
04:29PM 24.8739 -81.6058 43° Northeast 253 291 16,000 1,140 Climbing Miami Center
04:30PM 24.9350 -81.5667 30° Northeast 261 300 17,200 1,020 Climbing Miami Center
04:31PM 25.0047 -81.5364 21° North 257 296 18,200 960 Climbing Miami Center
04:32PM 25.0711 -81.5061 22° Northeast 257 296 19,200 840 Climbing Miami Center
04:33PM 25.1386 -81.4772 21° North 258 297 20,000 840 Climbing Miami Center
04:34PM 25.2186 -81.4417 22° Northeast 258 297 21,000 840 Climbing Miami Center
04:35PM 25.2867 -81.4108 22° Northeast 259 298 21,800 720 Climbing Miami Center
04:36PM 25.3550 -81.3817 21° North 260 299 22,500 540 Climbing Miami Center
04:37PM 25.4231 -81.3525 21° North 261 300 23,000 480 Climbing Miami Center
04:38PM 25.4922 -81.3225 21° North 261 300 23,500 480 Climbing Miami Center
04:39PM 25.5606 -81.2928 21° North 261 300 24,000 480 Climbing Miami Center
04:40PM 25.6300 -81.2617 22° Northeast 264 304 24,500 480 Climbing Miami Center
04:41PM 25.6992 -81.2644 358° North 250 288 25,000 480 Climbing Miami Center
04:42PM 25.7775 -81.2903 343° North 245 282 25,500 420 Climbing Miami Center
04:43PM 25.8422 -81.3106 344° North 244 281 25,900 240 Climbing Miami Center
04:44PM 25.9097 -81.3314 344° North 251 289 26,000  Climbing Miami Center
04:45PM 25.9811 -81.3550 343° North 263 303 26,000  Level Miami Center
04:46PM 26.0553 -81.3792 344° North 274 315 26,000  Level Miami Center
04:47PM 26.1308 -81.4028 344° North 278 320 26,000  Level Miami Center
04:49PM 26.2067 -81.4269 344° North 279 321 26,000  Level Miami Center
04:50PM 26.2994 -81.4567 344° North 287 330 26,000  Level Miami Center
04:51PM 26.3781 -81.4825 344° North 291 335 26,000  Level Miami Center
04:52PM 26.4583 -81.5086 344° North 297 342 26,000  Level Miami Center
04:53PM 26.5436 -81.5358 344° North 299 344 26,000  Level Miami Center
04:54PM 26.6264 -81.5656 342° North 299 344 26,000  Level Miami Center
04:55PM 26.7103 -81.5906 345° North 299 344 26,000  Level Miami Center
04:56PM 26.7931 -81.6181 343° North 295 339 26,000  Level Miami Center
04:57PM 26.8678 -81.6433 343° North 295 339 26,000  Level Miami Center
04:58PM 26.9531 -81.6708 344° North 295 339 26,000  Level Miami Center
04:59PM 27.0344 -81.6978 344° North 297 342 26,000  Level Miami Center
05:00PM 27.1169 -81.7247 344° North 297 342 26,000  Level Miami Center
05:01PM 27.2003 -81.7525 343° North 297 342 26,000  Level Miami Center
05:02PM 27.2778 -81.7778 344° North 297 342 26,000  Level Miami Center
05:03PM 27.3622 -81.8058 344° North 297 342 26,000  Level Miami Center
05:04PM 27.4447 -81.8333 344° North 297 342 26,000  Level Miami Center
05:05PM 27.5281 -81.8606 344° North 297 342 26,000  Level Miami Center
05:06PM 27.6056 -81.8864 344° North 298 343 26,000  Level Miami Center
05:07PM 27.6892 -81.9139 344° North 298 343 26,000  Level Miami Center
05:08PM 27.7733 -81.9425 343° North 300 345 26,000  Level Miami Center
05:09PM 27.8472 -81.9689 342° North 300 345 26,000  Level Miami Center
05:10PM 27.9200 -82.0161 330° Northwest 302 348 26,000  Level Miami Center
05:11PM 27.9906 -82.0681 327° Northwest 302 348 26,000  Level Miami Center
05:12PM 28.0614 -82.1197 327° Northwest 302 348 26,000  Level Miami Center
05:13PM 28.1467 -82.1828 327° Northwest 302 348 26,000  Level Miami Center
05:14PM 28.2172 -82.2342 327° Northwest 303 349 26,000  Level Miami Center
05:15PM 28.2883 -82.2853 328° Northwest 302 348 26,000  Level Miami Center
05:16PM 28.3653 -82.3383 329° Northwest 302 348 26,000  Level Miami Center
05:17PM 28.4358 -82.3872 329° Northwest 299 344 26,000  Level Miami Center
05:18PM 28.5114 -82.4294 334° Northwest 299 344 26,000  Level Miami Center
05:19PM 28.5861 -82.4722 333° Northwest 299 344 26,000  Level Miami Center
05:20PM 28.6733 -82.5233 333° Northwest 296 341 26,000  Level Jacksonville Center
05:21PM 28.7400 -82.5586 335° Northwest 296 341 26,000  Level Jacksonville Center
05:22PM 28.8153 -82.6011 334° Northwest 296 341 26,000  Level Jacksonville Center
05:23PM 28.8906 -82.6436 334° Northwest 296 341 26,000  Level Jacksonville Center
05:24PM 28.9636 -82.6861 333° Northwest 291 335 26,000  Level Jacksonville Center
05:25PM 29.0408 -82.7286 334° Northwest 291 335 26,000  Level Jacksonville Center
05:26PM 29.1142 -82.7714 333° Northwest 296 341 26,000  Level Jacksonville Center
05:27PM 29.1872 -82.8117 334° Northwest 296 341 26,000  Level Jacksonville Center
05:28PM 29.2622 -82.8569 332° Northwest 296 341 26,000  Level Jacksonville Center
05:29PM 29.3353 -82.8997 333° Northwest 296 341 26,000  Level Jacksonville Center
05:30PM 29.4125 -82.9428 334° Northwest 296 341 26,000  Level Jacksonville Center
05:31PM 29.4856 -82.9856 333° Northwest 296 341 26,000  Level Jacksonville Center
05:32PM 29.5669 -83.0333 333° Northwest 305 351 26,000  Level Jacksonville Center
05:33PM 29.6464 -83.0456 352° North 300 345 26,000  Level Jacksonville Center
05:34PM 29.7300 -83.0361 North 292 336 26,000  Level Jacksonville Center
05:35PM 29.8133 -83.0267 North 292 336 26,000  Level Jacksonville Center
05:36PM 29.8969 -83.0194 North 292 336 26,000  Level Jacksonville Center
05:37PM 29.9764 -83.0100 North 292 336 26,000  Level Jacksonville Center
05:38PM 30.0744 -83.0006 North 297 342 26,100 300 Climbing Jacksonville Center
05:39PM 30.1494 -82.9933 North 289 333 26,700 420 Climbing Jacksonville Center
05:40PM 30.2269 -82.9839 North 278 320 27,000 120 Climbing Jacksonville Center
05:41PM 30.3083 -82.9767 North 278 320 27,000  Level Jacksonville Center
05:42PM 30.3917 -82.9672 North 278 320 27,000  Level Jacksonville Center
05:43PM 30.4711 -82.9600 North 283 326 27,000  Level Jacksonville Center
05:44PM 30.5567 -82.9506 North 295 339 27,000  Level Jacksonville Center
05:45PM 30.6278 -82.9458 North 289 333 27,000  Level Jacksonville Center
05:46PM 30.7111 -82.9386 North 289 333 27,000  Level Jacksonville Center
05:47PM 30.7969 -82.9289 North 294 338 27,000  Level Jacksonville Center
05:48PM 30.8783 -82.9192 North 294 338 27,000  Level Jacksonville Center
05:49PM 30.9575 -82.9119 North 294 338 27,000  Level Jacksonville Center
05:50PM 31.0433 -82.9022 North 294 338 27,000  Level Jacksonville Center
05:51PM 31.1350 -82.8903 North 301 346 27,000  Level Jacksonville Center
05:52PM 31.2208 -82.8803 North 301 346 27,000  Level Jacksonville Center
05:53PM 31.3022 -82.8706 North 301 346 27,000  Level Jacksonville Center
05:54PM 31.3856 -82.8633 North 296 341 27,000  Level Jacksonville Center
05:56PM 31.5197 -82.8525 North 301 346 27,000  Level Atlanta Center
05:57PM 31.6031 -82.8442 North 301 346 27,000  Level Atlanta Center
05:58PM 31.6844 -82.8358 North 294 338 27,000  Level Atlanta Center
05:59PM 31.7697 -82.8247 North 294 338 27,000  Level Atlanta Center
06:00PM 31.8533 -82.8164 North 300 345 27,000  Level Atlanta Center
06:01PM 31.9367 -82.8078 North 288 331 27,000  Level Atlanta Center
06:02PM 32.0200 -82.7994 North 294 338 27,000  Level Atlanta Center
06:03PM 32.1033 -82.7933 North 294 338 27,000  Level Atlanta Center
06:04PM 32.1847 -82.7822 North 294 338 27,000  Level Atlanta Center
06:05PM 32.2681 -82.7739 North 294 338 27,000  Level Atlanta Center
06:06PM 32.3536 -82.7653 North 294 338 27,000  Level Atlanta Center
06:07PM 32.4369 -82.7567 North 294 338 27,000  Level Atlanta Center
06:08PM 32.5058 -82.7483 North 294 338 27,000  Level Atlanta Center
06:09PM 32.5933 -82.7372 North 294 338 27,000  Level Atlanta Center
06:10PM 32.6789 -82.7283 North 294 338 27,000  Level Atlanta Center
06:11PM 32.7644 -82.7197 North 294 338 27,000  Level Atlanta Center
06:12PM 32.8583 -82.7133 North 302 348 27,000  Level Atlanta Center
06:13PM 32.9394 -82.7022 North 297 342 27,000  Level Atlanta Center
06:14PM 33.0250 -82.6936 North 297 342 27,000  Level Atlanta Center
06:15PM 33.1083 -82.6847 North 297 342 27,000  Level Atlanta Center
06:16PM 33.1917 -82.6761 North 297 342 27,000  Level Atlanta Center
06:17PM 33.2753 -82.6647 North 292 336 27,000  Level Atlanta Center
06:18PM 33.3606 -82.6583 North 298 343 27,000  Level Atlanta Center
06:19PM 33.4419 -82.6472 North 303 349 27,000  Level Atlanta Center
06:20PM 33.5275 -82.6383 North 303 349 27,000  Level Atlanta Center
06:21PM 33.6128 -82.6269 North 303 349 27,000  Level Atlanta Center
06:22PM 33.6942 -82.6206 North 297 342 27,000  Level Atlanta Center
06:23PM 33.7733 -82.6119 North 291 335 27,000  Level Atlanta Center
06:24PM 33.8589 -82.6003 North 291 335 27,000  Level Atlanta Center
06:25PM 33.9403 -82.5914 North 291 335 27,000  Level Atlanta Center
06:26PM 34.0194 -82.5828 North 291 335 27,000  Level Atlanta Center
06:27PM 34.1047 -82.5736 North 291 335 27,000  Level Atlanta Center
06:28PM 34.1758 -82.5650 North 291 335 27,000  Level Atlanta Center
06:29PM 34.2633 -82.5583 North 291 335 27,000  Level Atlanta Center
06:30PM 34.3444 -82.5494 North 291 335 27,000  Level Atlanta Center
06:31PM 34.4239 -82.5406 North 291 335 27,000  Level Atlanta Center
06:32PM 34.5028 -82.5289 North 291 335 27,000  Level Atlanta Center
06:33PM 34.5842 -82.5225 North 291 335 27,000  Level Atlanta Center
06:34PM 34.6653 -82.5058 10° North 291 335 27,000  Level Atlanta Center
06:35PM 34.7447 -82.5019 North 291 335 27,000  Level Atlanta Center
06:36PM 34.8258 -82.4953 North 291 335 27,000  Level Atlanta Center
06:37PM 34.9050 -82.4836 North 291 335 27,000  Level Atlanta Center
06:38PM 34.9864 -82.4772 North 291 335 27,000  Level Atlanta Center
06:39PM 35.0678 -82.4681 North 291 335 27,000  Level Atlanta Center
06:40PM 35.1511 -82.4614 North 291 335 27,000  Level Atlanta Center
06:41PM 35.2261 -82.4497 North 291 335 27,000  Level Atlanta Center
06:42PM 35.3053 -82.4431 North 291 335 27,000  Level Atlanta Center
06:43PM 35.3864 -82.4314 North 291 335 27,000  Level Atlanta Center
06:44PM 35.4678 -82.4219 North 291 335 27,000  Level Atlanta Center
06:45PM 35.5489 -82.4128 North 291 335 27,000  Level Atlanta Center
06:46PM 35.6281 -82.4036 North 291 335 27,000  Level Atlanta Center
06:47PM 35.7114 -82.3942 North 291 335 27,000  Level Atlanta Center
06:48PM 35.7989 -82.3822 North 291 335 27,000  Level Atlanta Center
06:49PM 35.8800 -82.3703 North 291 335 27,000  Level Atlanta Center
06:50PM 35.9614 -82.3636 North 291 335 27,000  Level Atlanta Center
06:51PM 36.0444 -82.3517 North 291 335 27,000  Level Atlanta Center
06:52PM 36.1236 -82.3422 North 291 335 27,000  Level Atlanta Center
06:53PM 36.2050 -82.3328 North 291 335 27,000  Level Atlanta Center
06:54PM 36.2861 -82.3233 North 296 341 27,000  Level Atlanta Center
06:55PM 36.3694 -82.3139 North 291 335 27,000  Level Atlanta Center
06:56PM 36.4506 -82.3042 North 291 335 27,000  Level Atlanta Center
06:57PM 36.5339 -82.2947 North 291 335 27,000  Level Atlanta Center
06:59PM 36.6575 -82.2806 North 295 339 27,000  Level Indianapolis Center
07:00PM 36.7378 -82.2706 North 294 338 27,000  Level Indianapolis Center
07:01PM 36.8336 -82.2592 North 294 338 27,000  Level Indianapolis Center
07:02PM 36.9147 -82.2528 North 294 338 27,000  Level Indianapolis Center
07:03PM 36.9961 -82.2467 North 294 338 27,000  Level Indianapolis Center
07:04PM 37.0783 -82.2406 North 294 338 27,000  Level Indianapolis Center
07:05PM 37.1611 -82.2328 North 295 339 27,000  Level Indianapolis Center
07:06PM 37.2439 -82.2264 North 295 339 27,000  Level Indianapolis Center
07:07PM 37.3389 -82.2189 North 295 339 27,000  Level Indianapolis Center
07:08PM 37.4219 -82.2119 North 295 339 27,000  Level Indianapolis Center
07:09PM 37.5036 -82.2058 North 295 339 27,000  Level Indianapolis Center
07:10PM 37.5858 -82.1994 North 295 339 27,000  Level Indianapolis Center
07:11PM 37.6672 -82.1928 North 295 339 27,000  Level Indianapolis Center
07:12PM 37.7492 -82.1858 North 295 339 27,000  Level Indianapolis Center
07:13PM 37.8439 -82.1783 North 294 338 27,000  Level Indianapolis Center
07:14PM 37.9256 -82.1722 North 294 338 27,000  Level Indianapolis Center
07:15PM 38.0081 -82.1653 North 294 338 27,000  Level Indianapolis Center
07:16PM 38.0811 -82.1589 North 294 338 27,000  Level Indianapolis Center
07:17PM 38.1783 -82.1514 North 294 338 27,000  Level Indianapolis Center
07:18PM 38.2589 -82.1431 North 293 337 27,000  Level Indianapolis Center
07:19PM 38.3394 -82.1378 North 293 337 27,000 -60 Level Indianapolis Center
07:20PM 38.4206 -82.1306 North 292 336 26,900 -360 Descending Indianapolis Center
07:21PM 38.5019 -82.1239 North 291 335 26,300 -600 Descending Indianapolis Center
07:22PM 38.5869 -82.1161 North 300 345 25,700 -600 Descending Indianapolis Center
07:23PM 38.6728 -82.1083 North 302 348 25,100 -600 Descending Indianapolis Center
07:24PM 38.7586 -82.1019 North 304 350 24,500 -600 Descending Indianapolis Center
07:25PM 38.8456 -82.0939 North 306 352 23,900 -600 Descending Indianapolis Center
07:26PM 38.9336 -82.0947 360° North 315 362 23,300 -1,260 Descending Indianapolis Center
07:27PM 39.0364 -82.1378 342° North 320 368 21,400 -1,680 Descending Indianapolis Center
07:29PM 39.1264 -82.1728 343° North 331 381 19,900 -1,560 Descending Indianapolis Center
07:30PM 39.2194 -82.2089 343° North 338 389 18,200 -1,680 Descending Indianapolis Center
07:30PM 39.2889 -82.2406 341° North 345 397 16,900 -1,680 Descending Indianapolis Center
07:31PM 39.3106 -82.2439 353° North 341 392 16,500 -1,680 Descending Indianapolis Center
07:31PM 39.3761 -82.2750 340° North 326 375 15,200 -1,680 Descending Indianapolis Center
07:32PM 39.3972 -82.2781 354° North 336 387 14,800 -1,680 Descending Indianapolis Center
07:32PM 39.4714 -82.3136 340° North 309 356 13,400 -1,500 Descending Indianapolis Center
07:33PM 39.4783 -82.3119 10° North 319 367 13,300 -1,380 Descending Indianapolis Center
07:33PM 39.5500 -82.3497 338° Northwest 306 352 12,000 -1,380 Descending Indianapolis Center
07:34PM 39.5572 -82.3514 350° North 311 358 11,900 -1,380 Descending Indianapolis Center
07:35PM 39.6178 -82.4361 313° West 292 336 10,500 -960 Descending Indianapolis Center
07:36PM 39.6783 -82.5142 315° West 282 325 10,000 -240 Descending Indianapolis Center
07:37PM 39.7242 -82.5786 313° West 255 293 10,000  Level Indianapolis Center
07:38PM 39.7706 -82.6403 314° West 244 281 10,000 -420 Level Indianapolis Center
07:39PM 39.8197 -82.7039 315° West 241 277 9,200 -1,380 Descending Indianapolis Center
07:40PM 39.8589 -82.7589 313° West 243 280 7,500 -1,860 Descending Indianapolis Center
07:40PM 39.8650 -82.7636 329° Northwest 243 280 7,200 -1,500 Descending Indianapolis Center
07:41PM 39.9069 -82.8267 311° West 242 278 6,000 -1,200 Descending Indianapolis Center
07:41PM 39.9103 -82.8281 342° North 243 280 6,000 -1,140 Level Indianapolis Center
07:42PM 39.9228 -82.9056 282° West 230 265 4,900 -1,080 Descending Indianapolis Center
07:42PM 39.9244 -82.9042 33° Northeast 234 269 4,900 -1,200 Level Indianapolis Center
07:43PM 39.9269 -82.9717 273° West 216 249 3,800 -1,500 Descending Indianapolis Center
07:43PM 39.9289 -83.0003 275° West 230 265 3,400 -600 Descending Indianapolis Center
07:44PM 39.9328 -83.0622 275° West 194 223 3,000 -180 Descending Indianapolis Center
07:45PM 39.9650 -83.0786 339° North 156 180 3,100 60 Climbing Indianapolis Center
07:45PM 39.9742 -83.0744 19° North 177 204 3,100 -120 Level Indianapolis Center
07:46PM 39.9950 -83.0508 41° Northeast 156 180 3,000 -120 Descending Indianapolis Center
07:46PM 39.9978 -83.0336 78° East 161 185 3,000 -480 Level Indianapolis Center
07:46PM 39.9972 -83.0047 91° East 152 175 2,600 -840 Descending Indianapolis Center
07:47PM 39.9981 -82.9786 88° East 153 176 2,200 -1,140 Descending Indianapolis Center
07:47PM 39.9947 -82.9442 97° East 158 182 1,500 -1,080 Descending Indianapolis Center
07:48PM 39.9950 -82.9233 89° East 153 176 1,100 -780 Descending Indianapolis Center